sensor_id;sensor_type;location;lat;lon;timestamp;P1;durP1;ratioP1;P2;durP2;ratioP2
52126;SDS011;38120;53.176;6.614;2023-01-01T00:03:53;19.50;;;8.30;;
52126;SDS011;38120;53.176;6.614;2023-01-01T00:06:28;15.93;;;6.75;;
52126;SDS011;38120;53.176;6.614;2023-01-01T00:09:02;17.02;;;7.95;;
52126;SDS011;38120;53.176;6.614;2023-01-01T00:11:47;13.32;;;7.05;;
52126;SDS011;38120;53.176;6.614;2023-01-01T00:14:12;18.33;;;8.20;;
52126;SDS011;38120;53.176;6.614;2023-01-01T00:16:38;12.32;;;7.93;;
52126;SDS011;38120;53.176;6.614;2023-01-01T00:19:04;12.60;;;6.13;;
52126;SDS011;38120;53.176;6.614;2023-01-01T00:21:30;12.23;;;7.13;;
52126;SDS011;38120;53.176;6.614;2023-01-01T00:23:55;15.40;;;8.23;;
52126;SDS011;38120;53.176;6.614;2023-01-01T00:26:21;20.63;;;10.55;;
52126;SDS011;38120;53.176;6.614;2023-01-01T00:28:47;18.63;;;10.75;;
52126;SDS011;38120;53.176;6.614;2023-01-01T00:31:14;20.40;;;13.52;;
52126;SDS011;38120;53.176;6.614;2023-01-01T00:33:42;18.55;;;10.07;;
52126;SDS011;38120;53.176;6.614;2023-01-01T00:36:09;24.92;;;13.30;;
52126;SDS011;38120;53.176;6.614;2023-01-01T00:38:55;20.50;;;11.38;;
52126;SDS011;38120;53.176;6.614;2023-01-01T00:41:21;21.50;;;12.20;;
52126;SDS011;38120;53.176;6.614;2023-01-01T00:43:47;19.20;;;12.75;;
52126;SDS011;38120;53.176;6.614;2023-01-01T00:46:13;20.08;;;13.82;;
52126;SDS011;38120;53.176;6.614;2023-01-01T00:48:39;25.50;;;12.98;;
52126;SDS011;38120;53.176;6.614;2023-01-01T00:51:12;18.73;;;10.88;;
52126;SDS011;38120;53.176;6.614;2023-01-01T00:53:38;18.35;;;9.45;;
52126;SDS011;38120;53.176;6.614;2023-01-01T00:56:04;19.25;;;10.98;;
52126;SDS011;38120;53.176;6.614;2023-01-01T00:58:30;17.80;;;10.60;;
52126;SDS011;38120;53.176;6.614;2023-01-01T01:00:56;17.30;;;10.15;;
52126;SDS011;38120;53.176;6.614;2023-01-01T01:03:22;20.13;;;10.38;;
52126;SDS011;38120;53.176;6.614;2023-01-01T01:05:57;17.08;;;11.32;;
52126;SDS011;38120;53.176;6.614;2023-01-01T01:08:26;19.35;;;13.00;;
52126;SDS011;38120;53.176;6.614;2023-01-01T01:10:52;23.65;;;13.52;;
52126;SDS011;38120;53.176;6.614;2023-01-01T01:13:37;20.30;;;13.68;;
52126;SDS011;38120;53.176;6.614;2023-01-01T01:16:08;24.00;;;14.65;;
52126;SDS011;38120;53.176;6.614;2023-01-01T01:18:36;24.17;;;13.50;;
52126;SDS011;38120;53.176;6.614;2023-01-01T01:21:02;25.92;;;12.98;;
52126;SDS011;38120;53.176;6.614;2023-01-01T01:23:28;24.30;;;11.38;;
52126;SDS011;38120;53.176;6.614;2023-01-01T01:25:54;22.05;;;14.10;;
52126;SDS011;38120;53.176;6.614;2023-01-01T01:28:30;23.20;;;14.45;;
52126;SDS011;38120;53.176;6.614;2023-01-01T01:30:58;30.08;;;16.35;;
52126;SDS011;38120;53.176;6.614;2023-01-01T01:33:24;23.67;;;14.95;;
52126;SDS011;38120;53.176;6.614;2023-01-01T01:35:50;26.63;;;15.45;;
52126;SDS011;38120;53.176;6.614;2023-01-01T01:41:00;32.15;;;17.92;;
52126;SDS011;38120;53.176;6.614;2023-01-01T01:46:06;25.88;;;19.33;;
52126;SDS011;38120;53.176;6.614;2023-01-01T01:48:55;35.40;;;18.10;;
52126;SDS011;38120;53.176;6.614;2023-01-01T01:51:33;29.58;;;22.00;;
52126;SDS011;38120;53.176;6.614;2023-01-01T01:54:06;35.75;;;21.15;;
52126;SDS011;38120;53.176;6.614;2023-01-01T01:56:38;39.15;;;24.02;;
52126;SDS011;38120;53.176;6.614;2023-01-01T01:59:07;33.92;;;25.05;;
52126;SDS011;38120;53.176;6.614;2023-01-01T02:01:34;36.85;;;24.40;;
52126;SDS011;38120;53.176;6.614;2023-01-01T02:04:00;31.50;;;21.98;;
52126;SDS011;38120;53.176;6.614;2023-01-01T02:08:53;39.42;;;27.67;;
52126;SDS011;38120;53.176;6.614;2023-01-01T02:11:21;41.17;;;27.08;;
52126;SDS011;38120;53.176;6.614;2023-01-01T02:13:47;48.75;;;29.50;;
52126;SDS011;38120;53.176;6.614;2023-01-01T02:16:21;43.20;;;28.42;;
52126;SDS011;38120;53.176;6.614;2023-01-01T02:19:17;50.45;;;32.97;;
52126;SDS011;38120;53.176;6.614;2023-01-01T02:21:54;48.90;;;29.80;;
52126;SDS011;38120;53.176;6.614;2023-01-01T02:30:12;43.17;;;29.20;;
52126;SDS011;38120;53.176;6.614;2023-01-01T02:32:50;37.88;;;26.17;;
52126;SDS011;38120;53.176;6.614;2023-01-01T02:35:30;41.70;;;28.20;;
52126;SDS011;38120;53.176;6.614;2023-01-01T02:38:10;43.33;;;23.23;;
52126;SDS011;38120;53.176;6.614;2023-01-01T02:40:48;38.00;;;23.17;;
52126;SDS011;38120;53.176;6.614;2023-01-01T02:43:40;35.97;;;19.70;;
52126;SDS011;38120;53.176;6.614;2023-01-01T02:46:07;25.83;;;17.48;;
52126;SDS011;38120;53.176;6.614;2023-01-01T02:53:35;29.45;;;18.60;;
52126;SDS011;38120;53.176;6.614;2023-01-01T02:59:01;27.90;;;18.42;;
52126;SDS011;38120;53.176;6.614;2023-01-01T03:02:20;33.30;;;18.85;;
52126;SDS011;38120;53.176;6.614;2023-01-01T03:05:49;25.38;;;14.38;;
52126;SDS011;38120;53.176;6.614;2023-01-01T03:10:43;24.25;;;12.65;;
52126;SDS011;38120;53.176;6.614;2023-01-01T03:19:11;21.05;;;12.73;;
52126;SDS011;38120;53.176;6.614;2023-01-01T03:21:42;19.00;;;12.60;;
52126;SDS011;38120;53.176;6.614;2023-01-01T03:24:23;22.63;;;12.60;;
52126;SDS011;38120;53.176;6.614;2023-01-01T03:26:57;23.30;;;12.85;;
52126;SDS011;38120;53.176;6.614;2023-01-01T03:29:26;23.52;;;13.60;;
52126;SDS011;38120;53.176;6.614;2023-01-01T03:31:55;25.27;;;13.35;;
52126;SDS011;38120;53.176;6.614;2023-01-01T03:34:31;26.23;;;16.20;;
52126;SDS011;38120;53.176;6.614;2023-01-01T03:37:02;23.55;;;15.27;;
52126;SDS011;38120;53.176;6.614;2023-01-01T03:39:36;29.40;;;15.75;;
52126;SDS011;38120;53.176;6.614;2023-01-01T03:42:12;30.70;;;16.90;;
52126;SDS011;38120;53.176;6.614;2023-01-01T03:44:54;27.98;;;15.95;;
52126;SDS011;38120;53.176;6.614;2023-01-01T03:47:26;28.27;;;17.65;;
52126;SDS011;38120;53.176;6.614;2023-01-01T03:49:53;34.90;;;18.17;;
52126;SDS011;38120;53.176;6.614;2023-01-01T03:54:51;26.80;;;13.38;;
52126;SDS011;38120;53.176;6.614;2023-01-01T04:00:11;23.10;;;13.90;;
52126;SDS011;38120;53.176;6.614;2023-01-01T04:02:53;23.70;;;11.07;;
52126;SDS011;38120;53.176;6.614;2023-01-01T04:05:25;21.45;;;11.73;;
52126;SDS011;38120;53.176;6.614;2023-01-01T04:07:52;16.08;;;7.82;;
52126;SDS011;38120;53.176;6.614;2023-01-01T04:10:20;13.70;;;8.00;;
52126;SDS011;38120;53.176;6.614;2023-01-01T04:12:51;14.77;;;6.32;;
52126;SDS011;38120;53.176;6.614;2023-01-01T04:18:04;10.35;;;4.75;;
52126;SDS011;38120;53.176;6.614;2023-01-01T04:20:30;9.38;;;4.45;;
52126;SDS011;38120;53.176;6.614;2023-01-01T04:22:56;12.43;;;5.32;;
52126;SDS011;38120;53.176;6.614;2023-01-01T04:25:23;11.52;;;5.15;;
52126;SDS011;38120;53.176;6.614;2023-01-01T04:27:49;9.57;;;4.20;;
52126;SDS011;38120;53.176;6.614;2023-01-01T04:30:15;12.07;;;5.18;;
52126;SDS011;38120;53.176;6.614;2023-01-01T04:32:41;10.48;;;6.15;;
52126;SDS011;38120;53.176;6.614;2023-01-01T04:35:07;16.45;;;6.32;;
52126;SDS011;38120;53.176;6.614;2023-01-01T04:37:34;13.60;;;6.70;;
52126;SDS011;38120;53.176;6.614;2023-01-01T04:42:26;14.25;;;7.55;;
52126;SDS011;38120;53.176;6.614;2023-01-01T04:44:52;15.60;;;6.85;;
52126;SDS011;38120;53.176;6.614;2023-01-01T04:47:17;17.40;;;8.33;;
52126;SDS011;38120;53.176;6.614;2023-01-01T04:49:43;11.47;;;6.90;;
52126;SDS011;38120;53.176;6.614;2023-01-01T04:52:09;14.90;;;7.50;;
52126;SDS011;38120;53.176;6.614;2023-01-01T04:54:34;17.27;;;6.43;;
52126;SDS011;38120;53.176;6.614;2023-01-01T04:57:00;11.77;;;4.70;;
52126;SDS011;38120;53.176;6.614;2023-01-01T04:59:27;15.60;;;6.32;;
52126;SDS011;38120;53.176;6.614;2023-01-01T05:01:54;18.15;;;6.40;;
52126;SDS011;38120;53.176;6.614;2023-01-01T05:04:20;11.10;;;5.22;;
52126;SDS011;38120;53.176;6.614;2023-01-01T05:06:46;12.45;;;5.10;;
52126;SDS011;38120;53.176;6.614;2023-01-01T05:09:12;15.40;;;4.97;;
52126;SDS011;38120;53.176;6.614;2023-01-01T05:11:38;8.57;;;4.20;;
52126;SDS011;38120;53.176;6.614;2023-01-01T05:14:04;13.38;;;4.18;;
52126;SDS011;38120;53.176;6.614;2023-01-01T05:16:31;12.10;;;3.50;;
52126;SDS011;38120;53.176;6.614;2023-01-01T05:19:02;15.13;;;4.53;;
52126;SDS011;38120;53.176;6.614;2023-01-01T05:21:29;12.82;;;3.72;;
52126;SDS011;38120;53.176;6.614;2023-01-01T05:23:58;10.82;;;3.08;;
52126;SDS011;38120;53.176;6.614;2023-01-01T05:26:27;13.20;;;5.65;;
52126;SDS011;38120;53.176;6.614;2023-01-01T05:28:55;12.57;;;4.65;;
52126;SDS011;38120;53.176;6.614;2023-01-01T05:31:22;14.45;;;4.28;;
52126;SDS011;38120;53.176;6.614;2023-01-01T05:33:49;9.18;;;3.70;;
52126;SDS011;38120;53.176;6.614;2023-01-01T05:36:21;11.55;;;3.35;;
52126;SDS011;38120;53.176;6.614;2023-01-01T05:41:34;10.85;;;3.70;;
52126;SDS011;38120;53.176;6.614;2023-01-01T05:44:01;9.55;;;4.57;;
52126;SDS011;38120;53.176;6.614;2023-01-01T05:46:27;10.10;;;4.00;;
52126;SDS011;38120;53.176;6.614;2023-01-01T05:48:53;10.07;;;3.45;;
52126;SDS011;38120;53.176;6.614;2023-01-01T05:53:47;8.23;;;3.00;;
52126;SDS011;38120;53.176;6.614;2023-01-01T05:56:14;7.53;;;2.45;;
52126;SDS011;38120;53.176;6.614;2023-01-01T06:01:11;8.02;;;2.67;;
52126;SDS011;38120;53.176;6.614;2023-01-01T06:03:39;7.20;;;2.38;;
52126;SDS011;38120;53.176;6.614;2023-01-01T06:08:50;9.40;;;2.25;;
52126;SDS011;38120;53.176;6.614;2023-01-01T06:11:24;5.70;;;1.55;;
52126;SDS011;38120;53.176;6.614;2023-01-01T06:16:17;7.05;;;1.60;;
52126;SDS011;38120;53.176;6.614;2023-01-01T06:18:46;4.28;;;1.60;;
52126;SDS011;38120;53.176;6.614;2023-01-01T06:21:13;6.30;;;2.05;;
52126;SDS011;38120;53.176;6.614;2023-01-01T06:23:41;9.25;;;2.80;;
52126;SDS011;38120;53.176;6.614;2023-01-01T06:26:08;7.10;;;1.90;;
52126;SDS011;38120;53.176;6.614;2023-01-01T06:28:34;5.22;;;2.13;;
52126;SDS011;38120;53.176;6.614;2023-01-01T06:31:22;7.75;;;1.77;;
52126;SDS011;38120;53.176;6.614;2023-01-01T06:33:49;6.70;;;2.13;;
52126;SDS011;38120;53.176;6.614;2023-01-01T06:38:43;7.43;;;1.88;;
52126;SDS011;38120;53.176;6.614;2023-01-01T06:41:11;6.82;;;2.08;;
52126;SDS011;38120;53.176;6.614;2023-01-01T06:43:39;4.68;;;1.38;;
52126;SDS011;38120;53.176;6.614;2023-01-01T06:48:47;9.60;;;2.05;;
52126;SDS011;38120;53.176;6.614;2023-01-01T06:51:36;5.82;;;1.40;;
52126;SDS011;38120;53.176;6.614;2023-01-01T06:54:03;8.50;;;1.92;;
52126;SDS011;38120;53.176;6.614;2023-01-01T06:58:56;8.88;;;1.40;;
52126;SDS011;38120;53.176;6.614;2023-01-01T07:01:40;8.88;;;2.13;;
52126;SDS011;38120;53.176;6.614;2023-01-01T07:04:06;5.63;;;1.35;;
52126;SDS011;38120;53.176;6.614;2023-01-01T07:06:35;8.07;;;2.28;;
52126;SDS011;38120;53.176;6.614;2023-01-01T07:09:02;12.10;;;2.65;;
52126;SDS011;38120;53.176;6.614;2023-01-01T07:11:29;12.95;;;2.30;;
52126;SDS011;38120;53.176;6.614;2023-01-01T07:13:55;8.02;;;2.33;;
52126;SDS011;38120;53.176;6.614;2023-01-01T07:16:22;9.43;;;2.25;;
52126;SDS011;38120;53.176;6.614;2023-01-01T07:18:48;9.75;;;1.98;;
52126;SDS011;38120;53.176;6.614;2023-01-01T07:24:05;6.85;;;1.80;;
52126;SDS011;38120;53.176;6.614;2023-01-01T07:26:34;9.88;;;3.13;;
52126;SDS011;38120;53.176;6.614;2023-01-01T07:28:59;12.93;;;2.30;;
52126;SDS011;38120;53.176;6.614;2023-01-01T07:31:25;7.55;;;2.40;;
52126;SDS011;38120;53.176;6.614;2023-01-01T07:33:51;20.90;;;3.15;;
52126;SDS011;38120;53.176;6.614;2023-01-01T07:36:17;14.13;;;3.17;;
52126;SDS011;38120;53.176;6.614;2023-01-01T07:38:42;8.13;;;2.10;;
52126;SDS011;38120;53.176;6.614;2023-01-01T07:41:09;10.38;;;2.40;;
52126;SDS011;38120;53.176;6.614;2023-01-01T07:43:35;15.43;;;1.92;;
52126;SDS011;38120;53.176;6.614;2023-01-01T07:46:01;9.43;;;2.20;;
52126;SDS011;38120;53.176;6.614;2023-01-01T07:48:28;8.75;;;2.30;;
52126;SDS011;38120;53.176;6.614;2023-01-01T07:53:39;17.15;;;2.53;;
52126;SDS011;38120;53.176;6.614;2023-01-01T07:56:05;10.93;;;2.13;;
52126;SDS011;38120;53.176;6.614;2023-01-01T07:58:31;8.57;;;2.88;;
52126;SDS011;38120;53.176;6.614;2023-01-01T08:00:57;12.30;;;3.33;;
52126;SDS011;38120;53.176;6.614;2023-01-01T08:03:22;9.23;;;2.10;;
52126;SDS011;38120;53.176;6.614;2023-01-01T08:05:48;11.10;;;2.63;;
52126;SDS011;38120;53.176;6.614;2023-01-01T08:08:14;11.32;;;3.72;;
52126;SDS011;38120;53.176;6.614;2023-01-01T08:10:40;13.27;;;3.08;;
52126;SDS011;38120;53.176;6.614;2023-01-01T08:13:06;19.60;;;3.03;;
52126;SDS011;38120;53.176;6.614;2023-01-01T08:15:33;11.30;;;2.35;;
52126;SDS011;38120;53.176;6.614;2023-01-01T08:18:00;12.88;;;2.90;;
52126;SDS011;38120;53.176;6.614;2023-01-01T08:20:28;13.30;;;3.17;;
52126;SDS011;38120;53.176;6.614;2023-01-01T08:25:40;11.48;;;2.90;;
52126;SDS011;38120;53.176;6.614;2023-01-01T08:28:06;24.00;;;3.20;;
52126;SDS011;38120;53.176;6.614;2023-01-01T08:30:32;13.05;;;3.65;;
52126;SDS011;38120;53.176;6.614;2023-01-01T08:32:58;10.67;;;2.90;;
52126;SDS011;38120;53.176;6.614;2023-01-01T08:35:24;7.17;;;2.03;;
52126;SDS011;38120;53.176;6.614;2023-01-01T08:37:49;18.00;;;3.88;;
52126;SDS011;38120;53.176;6.614;2023-01-01T08:40:15;13.65;;;3.47;;
52126;SDS011;38120;53.176;6.614;2023-01-01T08:42:41;8.90;;;2.93;;
52126;SDS011;38120;53.176;6.614;2023-01-01T08:45:07;12.25;;;3.63;;
52126;SDS011;38120;53.176;6.614;2023-01-01T08:47:33;10.75;;;3.65;;
52126;SDS011;38120;53.176;6.614;2023-01-01T08:50:01;19.65;;;3.55;;
52126;SDS011;38120;53.176;6.614;2023-01-01T08:52:27;13.57;;;3.60;;
52126;SDS011;38120;53.176;6.614;2023-01-01T08:54:53;10.35;;;3.25;;
52126;SDS011;38120;53.176;6.614;2023-01-01T08:57:18;19.23;;;4.20;;
52126;SDS011;38120;53.176;6.614;2023-01-01T08:59:44;9.73;;;3.30;;
52126;SDS011;38120;53.176;6.614;2023-01-01T09:02:10;13.15;;;3.88;;
52126;SDS011;38120;53.176;6.614;2023-01-01T09:04:36;17.20;;;3.30;;
52126;SDS011;38120;53.176;6.614;2023-01-01T09:07:02;18.00;;;4.03;;
52126;SDS011;38120;53.176;6.614;2023-01-01T09:09:28;16.75;;;3.42;;
52126;SDS011;38120;53.176;6.614;2023-01-01T09:11:55;10.25;;;3.42;;
52126;SDS011;38120;53.176;6.614;2023-01-01T09:14:23;16.48;;;3.50;;
52126;SDS011;38120;53.176;6.614;2023-01-01T09:16:49;19.23;;;3.80;;
52126;SDS011;38120;53.176;6.614;2023-01-01T09:21:59;15.10;;;4.68;;
52126;SDS011;38120;53.176;6.614;2023-01-01T09:24:25;9.23;;;2.53;;
52126;SDS011;38120;53.176;6.614;2023-01-01T09:26:51;14.35;;;3.58;;
52126;SDS011;38120;53.176;6.614;2023-01-01T09:29:17;7.60;;;3.33;;
52126;SDS011;38120;53.176;6.614;2023-01-01T09:31:45;7.47;;;2.88;;
52126;SDS011;38120;53.176;6.614;2023-01-01T09:36:56;17.25;;;3.25;;
52126;SDS011;38120;53.176;6.614;2023-01-01T09:39:22;14.15;;;3.65;;
52126;SDS011;38120;53.176;6.614;2023-01-01T09:47:33;12.55;;;3.97;;
52126;SDS011;38120;53.176;6.614;2023-01-01T09:50:04;13.10;;;3.88;;
52126;SDS011;38120;53.176;6.614;2023-01-01T09:52:55;16.48;;;3.53;;
52126;SDS011;38120;53.176;6.614;2023-01-01T09:58:06;15.40;;;3.60;;
52126;SDS011;38120;53.176;6.614;2023-01-01T10:00:56;20.15;;;4.10;;
52126;SDS011;38120;53.176;6.614;2023-01-01T10:03:34;15.32;;;4.10;;
52126;SDS011;38120;53.176;6.614;2023-01-01T10:06:27;22.38;;;3.83;;
52126;SDS011;38120;53.176;6.614;2023-01-01T10:11:58;22.83;;;4.55;;
52126;SDS011;38120;53.176;6.614;2023-01-01T10:14:31;14.10;;;3.67;;
52126;SDS011;38120;53.176;6.614;2023-01-01T10:17:13;17.83;;;3.75;;
52126;SDS011;38120;53.176;6.614;2023-01-01T10:19:43;15.35;;;4.88;;
52126;SDS011;38120;53.176;6.614;2023-01-01T10:22:21;17.67;;;3.55;;
52126;SDS011;38120;53.176;6.614;2023-01-01T10:29:59;12.88;;;3.83;;
52126;SDS011;38120;53.176;6.614;2023-01-01T10:32:27;16.85;;;3.45;;
52126;SDS011;38120;53.176;6.614;2023-01-01T10:35:14;11.02;;;3.72;;
52126;SDS011;38120;53.176;6.614;2023-01-01T10:37:42;9.45;;;3.00;;
52126;SDS011;38120;53.176;6.614;2023-01-01T10:40:19;13.40;;;3.65;;
52126;SDS011;38120;53.176;6.614;2023-01-01T10:42:47;22.38;;;4.07;;
52126;SDS011;38120;53.176;6.614;2023-01-01T10:45:16;16.65;;;3.90;;
52126;SDS011;38120;53.176;6.614;2023-01-01T10:50:53;15.77;;;3.33;;
52126;SDS011;38120;53.176;6.614;2023-01-01T10:53:50;17.07;;;3.37;;
52126;SDS011;38120;53.176;6.614;2023-01-01T10:56:20;10.80;;;3.00;;
52126;SDS011;38120;53.176;6.614;2023-01-01T10:58:51;15.80;;;2.97;;
52126;SDS011;38120;53.176;6.614;2023-01-01T11:01:26;10.80;;;2.78;;
52126;SDS011;38120;53.176;6.614;2023-01-01T11:03:58;12.25;;;2.58;;
52126;SDS011;38120;53.176;6.614;2023-01-01T11:06:32;13.38;;;2.63;;
52126;SDS011;38120;53.176;6.614;2023-01-01T11:09:00;11.00;;;2.63;;
52126;SDS011;38120;53.176;6.614;2023-01-01T11:14:05;12.98;;;2.67;;
52126;SDS011;38120;53.176;6.614;2023-01-01T11:16:46;11.50;;;2.70;;
52126;SDS011;38120;53.176;6.614;2023-01-01T11:19:23;11.70;;;2.80;;
52126;SDS011;38120;53.176;6.614;2023-01-01T11:21:53;11.23;;;3.00;;
52126;SDS011;38120;53.176;6.614;2023-01-01T11:24:20;12.10;;;3.42;;
52126;SDS011;38120;53.176;6.614;2023-01-01T11:26:46;9.65;;;3.00;;
52126;SDS011;38120;53.176;6.614;2023-01-01T11:31:51;11.50;;;2.67;;
52126;SDS011;38120;53.176;6.614;2023-01-01T11:34:36;14.95;;;2.75;;
52126;SDS011;38120;53.176;6.614;2023-01-01T11:37:05;11.05;;;2.17;;
52126;SDS011;38120;53.176;6.614;2023-01-01T11:39:42;7.18;;;3.55;;
52126;SDS011;38120;53.176;6.614;2023-01-01T11:42:27;9.73;;;2.40;;
52126;SDS011;38120;53.176;6.614;2023-01-01T11:45:02;10.50;;;2.42;;
52126;SDS011;38120;53.176;6.614;2023-01-01T11:47:39;10.98;;;2.75;;
52126;SDS011;38120;53.176;6.614;2023-01-01T11:50:26;11.30;;;3.03;;
52126;SDS011;38120;53.176;6.614;2023-01-01T11:52:55;10.73;;;3.67;;
52126;SDS011;38120;53.176;6.614;2023-01-01T11:55:30;12.95;;;2.88;;
52126;SDS011;38120;53.176;6.614;2023-01-01T11:58:03;9.93;;;2.95;;
52126;SDS011;38120;53.176;6.614;2023-01-01T12:00:38;12.68;;;2.92;;
52126;SDS011;38120;53.176;6.614;2023-01-01T12:03:13;7.65;;;2.35;;
52126;SDS011;38120;53.176;6.614;2023-01-01T12:08:40;15.40;;;2.47;;
52126;SDS011;38120;53.176;6.614;2023-01-01T12:13:53;7.68;;;1.88;;
52126;SDS011;38120;53.176;6.614;2023-01-01T12:16:27;7.68;;;2.03;;
52126;SDS011;38120;53.176;6.614;2023-01-01T12:19:23;10.95;;;2.53;;
52126;SDS011;38120;53.176;6.614;2023-01-01T12:21:58;14.85;;;2.78;;
52126;SDS011;38120;53.176;6.614;2023-01-01T12:24:31;10.15;;;2.63;;
52126;SDS011;38120;53.176;6.614;2023-01-01T12:35:24;11.77;;;2.88;;
52126;SDS011;38120;53.176;6.614;2023-01-01T12:43:17;11.20;;;2.75;;
52126;SDS011;38120;53.176;6.614;2023-01-01T12:54:24;8.25;;;2.97;;
52126;SDS011;38120;53.176;6.614;2023-01-01T12:59:56;10.23;;;2.72;;
52126;SDS011;38120;53.176;6.614;2023-01-01T13:02:27;8.20;;;2.30;;
52126;SDS011;38120;53.176;6.614;2023-01-01T13:05:02;12.60;;;3.28;;
52126;SDS011;38120;53.176;6.614;2023-01-01T13:07:34;7.53;;;2.45;;
52126;SDS011;38120;53.176;6.614;2023-01-01T13:10:28;11.07;;;2.97;;
52126;SDS011;38120;53.176;6.614;2023-01-01T13:13:00;10.07;;;2.78;;
52126;SDS011;38120;53.176;6.614;2023-01-01T13:20:44;16.60;;;3.10;;
52126;SDS011;38120;53.176;6.614;2023-01-01T13:45:03;8.20;;;2.30;;
52126;SDS011;38120;53.176;6.614;2023-01-01T14:01:41;12.43;;;2.92;;
52126;SDS011;38120;53.176;6.614;2023-01-01T14:04:27;11.15;;;3.13;;
52126;SDS011;38120;53.176;6.614;2023-01-01T14:07:02;8.68;;;2.03;;
52126;SDS011;38120;53.176;6.614;2023-01-01T14:09:42;12.02;;;2.78;;
52126;SDS011;38120;53.176;6.614;2023-01-01T14:12:08;12.15;;;2.63;;
52126;SDS011;38120;53.176;6.614;2023-01-01T14:14:39;12.27;;;2.88;;
52126;SDS011;38120;53.176;6.614;2023-01-01T14:17:05;17.02;;;3.40;;
52126;SDS011;38120;53.176;6.614;2023-01-01T14:19:32;10.93;;;2.97;;
52126;SDS011;38120;53.176;6.614;2023-01-01T14:21:59;10.48;;;3.05;;
52126;SDS011;38120;53.176;6.614;2023-01-01T14:24:25;10.23;;;2.72;;
52126;SDS011;38120;53.176;6.614;2023-01-01T14:26:52;13.15;;;3.35;;
52126;SDS011;38120;53.176;6.614;2023-01-01T14:29:25;13.57;;;3.42;;
52126;SDS011;38120;53.176;6.614;2023-01-01T14:31:53;18.58;;;2.67;;
52126;SDS011;38120;53.176;6.614;2023-01-01T14:36:55;13.10;;;2.95;;
52126;SDS011;38120;53.176;6.614;2023-01-01T14:39:23;11.52;;;2.33;;
52126;SDS011;38120;53.176;6.614;2023-01-01T14:41:50;17.02;;;3.92;;
52126;SDS011;38120;53.176;6.614;2023-01-01T14:44:19;11.52;;;4.38;;
52126;SDS011;38120;53.176;6.614;2023-01-01T14:46:49;8.98;;;3.05;;
52126;SDS011;38120;53.176;6.614;2023-01-01T14:49:18;13.43;;;3.63;;
52126;SDS011;38120;53.176;6.614;2023-01-01T14:54:47;11.35;;;3.45;;
52126;SDS011;38120;53.176;6.614;2023-01-01T14:57:15;14.25;;;4.50;;
52126;SDS011;38120;53.176;6.614;2023-01-01T14:59:48;14.65;;;3.95;;
52126;SDS011;38120;53.176;6.614;2023-01-01T15:02:22;14.43;;;3.60;;
52126;SDS011;38120;53.176;6.614;2023-01-01T15:04:48;12.68;;;5.00;;
52126;SDS011;38120;53.176;6.614;2023-01-01T15:09:48;10.93;;;3.00;;
52126;SDS011;38120;53.176;6.614;2023-01-01T15:12:14;12.95;;;3.65;;
52126;SDS011;38120;53.176;6.614;2023-01-01T15:14:45;18.98;;;3.47;;
52126;SDS011;38120;53.176;6.614;2023-01-01T15:17:13;15.32;;;3.03;;
52126;SDS011;38120;53.176;6.614;2023-01-01T15:19:42;14.55;;;3.78;;
52126;SDS011;38120;53.176;6.614;2023-01-01T15:25:03;14.57;;;3.72;;
52126;SDS011;38120;53.176;6.614;2023-01-01T15:27:30;13.27;;;3.83;;
52126;SDS011;38120;53.176;6.614;2023-01-01T15:30:00;11.25;;;2.80;;
52126;SDS011;38120;53.176;6.614;2023-01-01T15:32:29;13.25;;;3.30;;
52126;SDS011;38120;53.176;6.614;2023-01-01T15:37:42;9.77;;;3.10;;
52126;SDS011;38120;53.176;6.614;2023-01-01T15:42:38;15.88;;;4.43;;
52126;SDS011;38120;53.176;6.614;2023-01-01T15:45:29;19.67;;;5.60;;
52126;SDS011;38120;53.176;6.614;2023-01-01T15:50:40;14.80;;;3.67;;
52126;SDS011;38120;53.176;6.614;2023-01-01T15:53:26;16.85;;;3.80;;
52126;SDS011;38120;53.176;6.614;2023-01-01T15:55:54;18.83;;;4.35;;
52126;SDS011;38120;53.176;6.614;2023-01-01T16:01:05;14.98;;;3.83;;
52126;SDS011;38120;53.176;6.614;2023-01-01T16:03:37;11.27;;;3.53;;
52126;SDS011;38120;53.176;6.614;2023-01-01T16:06:05;13.55;;;4.20;;
52126;SDS011;38120;53.176;6.614;2023-01-01T16:08:31;13.35;;;4.22;;
52126;SDS011;38120;53.176;6.614;2023-01-01T16:10:57;14.25;;;5.47;;
52126;SDS011;38120;53.176;6.614;2023-01-01T16:13:23;15.02;;;4.05;;
52126;SDS011;38120;53.176;6.614;2023-01-01T16:15:59;13.70;;;5.18;;
52126;SDS011;38120;53.176;6.614;2023-01-01T16:18:30;16.15;;;5.05;;
52126;SDS011;38120;53.176;6.614;2023-01-01T16:21:00;15.88;;;5.90;;
52126;SDS011;38120;53.176;6.614;2023-01-01T16:23:27;14.50;;;5.60;;
52126;SDS011;38120;53.176;6.614;2023-01-01T16:25:53;17.25;;;4.75;;
52126;SDS011;38120;53.176;6.614;2023-01-01T16:28:18;10.23;;;5.10;;
52126;SDS011;38120;53.176;6.614;2023-01-01T16:30:44;15.33;;;4.30;;
52126;SDS011;38120;53.176;6.614;2023-01-01T16:33:14;10.80;;;5.28;;
52126;SDS011;38120;53.176;6.614;2023-01-01T16:35:41;16.27;;;6.93;;
52126;SDS011;38120;53.176;6.614;2023-01-01T16:40:33;18.77;;;9.60;;
52126;SDS011;38120;53.176;6.614;2023-01-01T16:42:59;32.20;;;15.00;;
52126;SDS011;38120;53.176;6.614;2023-01-01T16:45:25;26.27;;;16.40;;
52126;SDS011;38120;53.176;6.614;2023-01-01T16:47:51;20.95;;;11.20;;
52126;SDS011;38120;53.176;6.614;2023-01-01T16:50:19;19.60;;;7.40;;
52126;SDS011;38120;53.176;6.614;2023-01-01T16:52:45;21.00;;;8.95;;
52126;SDS011;38120;53.176;6.614;2023-01-01T16:55:12;15.23;;;5.25;;
52126;SDS011;38120;53.176;6.614;2023-01-01T17:00:04;16.40;;;6.60;;
52126;SDS011;38120;53.176;6.614;2023-01-01T17:02:31;20.70;;;6.93;;
52126;SDS011;38120;53.176;6.614;2023-01-01T17:04:57;21.23;;;7.90;;
52126;SDS011;38120;53.176;6.614;2023-01-01T17:07:23;12.13;;;4.57;;
52126;SDS011;38120;53.176;6.614;2023-01-01T17:09:49;17.40;;;5.28;;
52126;SDS011;38120;53.176;6.614;2023-01-01T17:12:15;15.90;;;5.70;;
52126;SDS011;38120;53.176;6.614;2023-01-01T17:14:41;12.93;;;4.97;;
52126;SDS011;38120;53.176;6.614;2023-01-01T17:17:06;13.80;;;4.70;;
52126;SDS011;38120;53.176;6.614;2023-01-01T17:19:33;13.98;;;4.90;;
52126;SDS011;38120;53.176;6.614;2023-01-01T17:21:58;13.30;;;5.00;;
52126;SDS011;38120;53.176;6.614;2023-01-01T17:24:25;16.42;;;5.47;;
52126;SDS011;38120;53.176;6.614;2023-01-01T17:26:51;12.02;;;4.85;;
52126;SDS011;38120;53.176;6.614;2023-01-01T17:29:19;11.93;;;5.15;;
52126;SDS011;38120;53.176;6.614;2023-01-01T17:31:45;16.38;;;4.57;;
52126;SDS011;38120;53.176;6.614;2023-01-01T17:34:12;15.93;;;5.32;;
52126;SDS011;38120;53.176;6.614;2023-01-01T17:36:38;15.77;;;4.38;;
52126;SDS011;38120;53.176;6.614;2023-01-01T17:39:05;12.02;;;4.72;;
52126;SDS011;38120;53.176;6.614;2023-01-01T17:41:31;13.20;;;4.70;;
52126;SDS011;38120;53.176;6.614;2023-01-01T17:43:57;14.52;;;5.47;;
52126;SDS011;38120;53.176;6.614;2023-01-01T17:46:24;19.48;;;5.60;;
52126;SDS011;38120;53.176;6.614;2023-01-01T17:48:52;14.23;;;5.22;;
52126;SDS011;38120;53.176;6.614;2023-01-01T17:51:18;17.92;;;4.10;;
52126;SDS011;38120;53.176;6.614;2023-01-01T17:53:44;17.13;;;5.88;;
52126;SDS011;38120;53.176;6.614;2023-01-01T17:56:11;12.85;;;5.78;;
52126;SDS011;38120;53.176;6.614;2023-01-01T17:58:39;14.75;;;5.57;;
52126;SDS011;38120;53.176;6.614;2023-01-01T18:03:49;15.20;;;5.30;;
52126;SDS011;38120;53.176;6.614;2023-01-01T18:06:20;12.18;;;4.30;;
52126;SDS011;38120;53.176;6.614;2023-01-01T18:08:46;12.63;;;5.10;;
52126;SDS011;38120;53.176;6.614;2023-01-01T18:11:13;13.23;;;5.63;;
52126;SDS011;38120;53.176;6.614;2023-01-01T18:13:39;11.40;;;5.32;;